createdAt,value
2023-03-27T00:00:42.569Z,26.28
2023-03-27T00:06:02.408Z,25.83
2023-03-27T00:11:08.434Z,26.28
2023-03-27T00:16:12.039Z,25.84
2023-03-27T00:21:15.520Z,25.90
2023-03-27T00:26:21.577Z,23.31
2023-03-27T00:31:24.971Z,23.03
2023-03-27T00:36:31.449Z,20.87
2023-03-27T00:41:38.388Z,21.77
2023-03-27T00:46:44.996Z,21.66
2023-03-27T00:51:49.383Z,20.34
2023-03-27T00:56:59.215Z,20.01
2023-03-27T01:02:03.665Z,21.93
2023-03-27T01:07:11.192Z,22.20
2023-03-27T01:12:23.747Z,22.38
2023-03-27T01:17:37.788Z,21.96
2023-03-27T01:23:06.278Z,22.27
2023-03-27T01:28:22.726Z,23.14
2023-03-27T01:34:00.695Z,23.28
2023-03-27T01:39:31.800Z,23.76
2023-03-27T01:44:45.871Z,23.51
2023-03-27T01:49:53.469Z,20.66
2023-03-27T01:55:05.058Z,18.70
2023-03-27T02:00:17.308Z,18.67
2023-03-27T02:05:25.624Z,18.20
2023-03-27T02:10:34.920Z,17.91
2023-03-27T02:15:47.783Z,18.68
2023-03-27T02:20:54.705Z,18.58
2023-03-27T02:26:01.768Z,18.54
2023-03-27T02:31:32.936Z,17.99
2023-03-27T02:36:45.555Z,18.86
2023-03-27T02:42:00.163Z,18.80
2023-03-27T02:47:27.745Z,17.54
2023-03-27T02:52:34.343Z,19.23
2023-03-27T02:57:40.084Z,18.96
2023-03-27T03:02:57.344Z,17.98
2023-03-27T03:08:01.154Z,24.28
2023-03-27T03:13:08.716Z,23.69
2023-03-27T03:18:14.183Z,23.48
2023-03-27T03:23:17.775Z,23.13
2023-03-27T03:28:22.722Z,24.28
2023-03-27T03:33:30.105Z,23.79
2023-03-27T03:38:38.131Z,24.48
2023-03-27T03:43:51.393Z,25.68
2023-03-27T03:48:59.537Z,24.72
2023-03-27T03:54:05.551Z,24.02
2023-03-27T03:59:11.841Z,24.28
2023-03-27T04:04:34.828Z,25.89
2023-03-27T04:09:43.505Z,25.99
2023-03-27T04:14:54.638Z,25.60
2023-03-27T04:20:26.515Z,26.94
2023-03-27T04:25:33.978Z,25.60
2023-03-27T04:30:44.151Z,26.53
2023-03-27T04:36:09.574Z,25.93
2023-03-27T04:41:29.766Z,25.91
2023-03-27T04:46:34.949Z,25.33
2023-03-27T04:51:44.647Z,23.52
2023-03-27T04:56:53.342Z,25.16
2023-03-27T05:02:01.694Z,27.85
2023-03-27T05:07:12.512Z,27.62
2023-03-27T05:12:16.567Z,28.02
2023-03-27T05:17:27.959Z,27.75
2023-03-27T05:22:33.959Z,28.23
2023-03-27T05:27:46.743Z,26.47
2023-03-27T05:32:53.745Z,27.09
2023-03-27T05:38:04.300Z,26.39
2023-03-27T05:43:14.784Z,26.83
2023-03-27T05:48:22.345Z,28.52
2023-03-27T05:53:28.988Z,26.67
2023-03-27T05:59:00.628Z,26.83
2023-03-27T06:04:09.467Z,24.75
2023-03-27T06:09:39.827Z,23.88
2023-03-27T06:15:04.240Z,20.96
2023-03-27T06:20:15.436Z,21.19
2023-03-27T06:25:32.127Z,22.37
2023-03-27T06:30:37.857Z,26.85
2023-03-27T06:36:01.408Z,29.11
2023-03-27T06:41:07.553Z,24.81
2023-03-27T06:46:42.546Z,25.49
2023-03-27T06:52:16.434Z,22.80
2023-03-27T06:57:21.084Z,24.05
2023-03-27T07:02:34.891Z,24.43
2023-03-27T07:07:58.301Z,23.66
2023-03-27T07:13:06.798Z,23.46
2023-03-27T07:18:12.101Z,26.06
2023-03-27T07:23:23.075Z,27.53
2023-03-27T07:28:39.531Z,24.73
2023-03-27T07:33:47.409Z,19.68
2023-03-27T07:38:56.946Z,19.44
2023-03-27T07:44:02.768Z,20.98
2023-03-27T07:49:19.619Z,20.88
2023-03-27T07:54:45.787Z,20.03
2023-03-27T07:59:52.701Z,19.94
2023-03-27T08:05:11.423Z,19.10
2023-03-27T08:10:20.889Z,19.84
2023-03-27T08:15:35.282Z,18.87
2023-03-27T08:20:42.878Z,17.85
2023-03-27T08:25:51.651Z,18.97
2023-03-27T08:31:02.987Z,18.67
2023-03-27T08:36:14.433Z,18.14
2023-03-27T08:41:27.137Z,18.08
2023-03-27T08:46:48.320Z,15.79
2023-03-27T08:51:58.116Z,12.36
2023-03-27T08:57:04.500Z,10.55
2023-03-27T09:02:18.055Z,11.03
2023-03-27T09:07:29.897Z,10.12
2023-03-27T09:13:07.852Z,7.46
2023-03-27T09:18:18.455Z,7.47
2023-03-27T09:23:28.180Z,6.91
2023-03-27T09:29:01.524Z,6.79
2023-03-27T09:34:14.294Z,6.64
2023-03-27T09:39:22.546Z,8.93
2023-03-27T09:44:40.068Z,14.23
2023-03-27T09:49:50.243Z,18.66
2023-03-27T09:54:59.503Z,14.56
2023-03-27T10:00:27.500Z,17.43
2023-03-27T10:05:32.901Z,16.02
2023-03-27T10:10:42.102Z,16.69
2023-03-27T10:16:18.035Z,20.77
2023-03-27T10:21:42.054Z,17.45
2023-03-27T10:26:49.981Z,22.68
2023-03-27T10:31:58.065Z,20.76
2023-03-27T10:37:28.420Z,17.22
2023-03-27T10:43:05.000Z,18.93
2023-03-27T10:48:15.103Z,18.15
2023-03-27T10:53:25.602Z,18.48
2023-03-27T10:58:44.491Z,16.98
2023-03-27T11:03:53.888Z,18.55
2023-03-27T11:09:05.861Z,22.38
2023-03-27T11:14:25.413Z,14.68
2023-03-27T11:19:37.190Z,19.70
2023-03-27T11:25:18.486Z,17.32
2023-03-27T11:30:32.833Z,16.13
2023-03-27T11:35:43.606Z,15.41
2023-03-27T11:41:06.134Z,18.01
2023-03-27T11:46:22.961Z,17.63
2023-03-27T11:51:39.269Z,17.70
2023-03-27T11:56:52.630Z,16.70
2023-03-27T12:02:20.680Z,16.12
2023-03-27T12:07:36.603Z,19.99
2023-03-27T12:12:59.381Z,17.82
2023-03-27T12:18:11.004Z,21.21
2023-03-27T12:23:36.815Z,17.53
2023-03-27T12:29:23.022Z,17.20
2023-03-27T12:34:43.442Z,14.71
2023-03-27T12:39:52.003Z,14.57
2023-03-27T12:45:04.588Z,18.07
2023-03-27T12:50:19.051Z,18.07
2023-03-27T12:55:32.336Z,21.04
2023-03-27T13:00:35.996Z,19.89
2023-03-27T13:06:06.941Z,18.41
2023-03-27T13:11:28.469Z,17.79
2023-03-27T13:16:44.836Z,18.91
2023-03-27T13:21:58.084Z,21.36
2023-03-27T13:27:18.860Z,19.45
2023-03-27T13:32:33.363Z,24.45
2023-03-27T13:38:00.811Z,16.60
2023-03-27T13:43:23.073Z,17.70
2023-03-27T13:48:50.382Z,18.31
2023-03-27T13:54:14.051Z,21.18
2023-03-27T13:59:32.673Z,13.26
2023-03-27T14:04:57.349Z,13.43
2023-03-27T14:10:13.832Z,15.40
2023-03-27T14:15:40.635Z,23.56
2023-03-27T14:21:09.284Z,16.47
2023-03-27T14:26:24.662Z,18.29
2023-03-27T14:31:35.517Z,17.43
2023-03-27T14:36:58.708Z,15.16
2023-03-27T14:42:16.519Z,18.22
2023-03-27T14:47:28.254Z,20.24
2023-03-27T14:52:37.438Z,21.73
2023-03-27T14:58:10.457Z,19.28
2023-03-27T15:03:22.889Z,19.28
2023-03-27T15:08:28.715Z,27.52
2023-03-27T15:13:50.460Z,18.82
2023-03-27T15:19:12.356Z,17.30
2023-03-27T15:24:23.008Z,20.91
2023-03-27T15:29:33.527Z,16.31
2023-03-27T15:34:46.309Z,15.94
2023-03-27T15:40:14.506Z,19.99
2023-03-27T15:45:24.191Z,19.77
2023-03-27T15:50:28.920Z,20.19
2023-03-27T15:55:38.354Z,47.26
2023-03-27T16:00:46.428Z,22.20
2023-03-27T16:05:57.475Z,26.54
2023-03-27T16:11:02.041Z,21.98
2023-03-27T16:16:07.914Z,18.42
2023-03-27T16:21:14.085Z,18.37
2023-03-27T16:26:24.395Z,17.70
2023-03-27T16:31:27.801Z,25.73
2023-03-27T16:36:33.431Z,18.06
2023-03-27T16:41:39.095Z,16.92
2023-03-27T16:46:45.104Z,14.38
2023-03-27T16:51:49.918Z,13.96
2023-03-27T16:56:54.257Z,17.96
2023-03-27T17:01:58.144Z,16.89
2023-03-27T17:07:02.940Z,35.40
2023-03-27T17:12:06.470Z,19.33
2023-03-27T17:17:10.409Z,18.15
2023-03-27T17:22:19.970Z,16.44
2023-03-27T17:27:26.881Z,18.44
2023-03-27T17:32:30.857Z,19.11
2023-03-27T17:37:36.675Z,23.06
2023-03-27T17:42:42.462Z,18.58
2023-03-27T17:47:45.982Z,17.43
2023-03-27T17:52:50.957Z,17.91
2023-03-27T17:58:07.878Z,21.86
2023-03-27T18:03:14.945Z,17.53
2023-03-27T18:08:20.840Z,16.99
2023-03-27T18:13:24.312Z,25.20
2023-03-27T18:18:28.208Z,23.89
2023-03-27T18:23:35.752Z,19.59
2023-03-27T18:28:39.466Z,17.88
2023-03-27T18:33:45.998Z,17.75
2023-03-27T18:38:52.058Z,22.54
2023-03-27T18:43:57.810Z,18.29
2023-03-27T18:49:10.293Z,19.03
2023-03-27T18:54:22.608Z,17.61
2023-03-27T18:59:28.903Z,18.33
2023-03-27T19:04:36.845Z,16.16
2023-03-27T19:09:42.056Z,17.82
2023-03-27T19:14:48.005Z,17.93
2023-03-27T19:20:13.762Z,15.60
2023-03-27T19:25:41.622Z,14.56
2023-03-27T19:30:45.710Z,14.67
2023-03-27T19:35:53.119Z,15.83
2023-03-27T19:41:00.791Z,17.32
2023-03-27T19:46:16.218Z,20.38
2023-03-27T19:51:20.388Z,16.36
2023-03-27T19:56:30.878Z,15.93
2023-03-27T20:01:37.605Z,18.74
2023-03-27T20:06:41.084Z,16.80
2023-03-27T20:11:48.038Z,17.80
2023-03-27T20:16:53.550Z,17.53
2023-03-27T20:21:59.628Z,19.52
2023-03-27T20:27:07.195Z,17.12
2023-03-27T20:32:14.443Z,17.48
2023-03-27T20:37:20.603Z,17.61
2023-03-27T20:42:39.087Z,17.27
2023-03-27T20:47:47.276Z,15.46
2023-03-27T20:52:50.787Z,14.55
2023-03-27T20:57:57.688Z,15.55
2023-03-27T21:03:03.382Z,16.97
2023-03-27T21:08:07.979Z,18.52
2023-03-27T21:13:12.742Z,18.50
2023-03-27T21:18:16.399Z,24.96
2023-03-27T21:23:20.073Z,16.59
2023-03-27T21:28:27.268Z,17.75
2023-03-27T21:33:31.231Z,19.23
2023-03-27T21:38:34.705Z,19.30
2023-03-27T21:43:39.539Z,19.01
2023-03-27T21:48:44.724Z,19.53
2023-03-27T21:53:50.527Z,16.64
2023-03-27T21:59:00.486Z,18.87
2023-03-27T22:04:03.922Z,19.20
2023-03-27T22:09:07.691Z,15.35
2023-03-27T22:14:12.595Z,14.84
2023-03-27T22:19:18.911Z,17.58
2023-03-27T22:24:25.899Z,16.96
2023-03-27T22:29:30.685Z,18.98
2023-03-27T22:34:34.110Z,18.87
2023-03-27T22:39:37.460Z,17.24
2023-03-27T22:44:42.473Z,18.12
2023-03-27T22:49:45.887Z,18.25
2023-03-27T22:54:49.295Z,16.03
2023-03-27T22:59:58.857Z,18.02
2023-03-27T23:05:02.954Z,18.84
2023-03-27T23:10:09.412Z,17.68
2023-03-27T23:15:14.622Z,18.27
2023-03-27T23:20:18.538Z,17.21
2023-03-27T23:25:22.185Z,16.40
2023-03-27T23:30:26.975Z,15.50
2023-03-27T23:35:30.727Z,15.59
2023-03-27T23:40:36.333Z,16.67
2023-03-27T23:45:41.158Z,17.51
2023-03-27T23:50:44.574Z,18.84
2023-03-27T23:55:48.096Z,17.26
